sensor_id;sensor_type;location;lat;lon;timestamp;pressure;altitude;pressure_sealevel;temperature
20848;BMP180;10584;50.854;12.902;2024-03-23T00:57:09;97292.00;;;8.70
20848;BMP180;10584;50.854;12.902;2024-03-23T01:02:30;97287.00;;;8.80
20848;BMP180;10584;50.854;12.902;2024-03-23T01:07:50;97282.00;;;8.90
20848;BMP180;10584;50.854;12.902;2024-03-23T01:13:11;97274.00;;;9.00
20848;BMP180;10584;50.854;12.902;2024-03-23T01:18:32;97261.00;;;9.00
20848;BMP180;10584;50.854;12.902;2024-03-23T01:23:53;97249.00;;;9.00
20848;BMP180;10584;50.854;12.902;2024-03-23T01:29:13;97242.00;;;9.00
20848;BMP180;10584;50.854;12.902;2024-03-23T01:34:34;97226.00;;;8.90
20848;BMP180;10584;50.854;12.902;2024-03-23T01:39:55;97226.00;;;8.80
20848;BMP180;10584;50.854;12.902;2024-03-23T01:45:15;97216.00;;;8.70
20848;BMP180;10584;50.854;12.902;2024-03-23T01:50:36;97197.00;;;8.70
20848;BMP180;10584;50.854;12.902;2024-03-23T01:55:57;97203.00;;;8.60
20848;BMP180;10584;50.854;12.902;2024-03-23T02:01:18;97193.00;;;8.50
20848;BMP180;10584;50.854;12.902;2024-03-23T02:06:39;97195.00;;;8.30
20848;BMP180;10584;50.854;12.902;2024-03-23T02:12:02;97187.00;;;8.20
20848;BMP180;10584;50.854;12.902;2024-03-23T02:17:25;97189.00;;;8.00
20848;BMP180;10584;50.854;12.902;2024-03-23T02:22:46;97194.00;;;7.90
20848;BMP180;10584;50.854;12.902;2024-03-23T02:28:07;97192.00;;;7.80
20848;BMP180;10584;50.854;12.902;2024-03-23T02:33:27;97170.00;;;7.80
20848;BMP180;10584;50.854;12.902;2024-03-23T02:38:48;97153.00;;;7.70
20848;BMP180;10584;50.854;12.902;2024-03-23T02:44:09;97157.00;;;7.70
20848;BMP180;10584;50.854;12.902;2024-03-23T02:49:32;97143.00;;;7.60
20848;BMP180;10584;50.854;12.902;2024-03-23T02:54:53;97139.00;;;7.50
20848;BMP180;10584;50.854;12.902;2024-03-23T03:00:14;97126.00;;;7.40
20848;BMP180;10584;50.854;12.902;2024-03-23T03:05:35;97129.00;;;7.40
20848;BMP180;10584;50.854;12.902;2024-03-23T03:10:55;97131.00;;;7.40
20848;BMP180;10584;50.854;12.902;2024-03-23T03:16:16;97136.00;;;7.40
20848;BMP180;10584;50.854;12.902;2024-03-23T03:21:37;97113.00;;;7.50
20848;BMP180;10584;50.854;12.902;2024-03-23T03:26:58;97096.00;;;7.50
20848;BMP180;10584;50.854;12.902;2024-03-23T03:32:18;97103.00;;;7.60
20848;BMP180;10584;50.854;12.902;2024-03-23T03:37:39;97100.00;;;7.60
20848;BMP180;10584;50.854;12.902;2024-03-23T03:43:00;97100.00;;;7.60
20848;BMP180;10584;50.854;12.902;2024-03-23T03:48:20;97084.00;;;7.60
20848;BMP180;10584;50.854;12.902;2024-03-23T03:53:42;97075.00;;;7.80
20848;BMP180;10584;50.854;12.902;2024-03-23T03:59:03;97056.00;;;7.80
20848;BMP180;10584;50.854;12.902;2024-03-23T04:04:24;97049.00;;;7.80
20848;BMP180;10584;50.854;12.902;2024-03-23T04:09:45;97024.00;;;7.80
20848;BMP180;10584;50.854;12.902;2024-03-23T04:15:06;96992.00;;;7.90
20848;BMP180;10584;50.854;12.902;2024-03-23T04:20:27;96982.00;;;7.90
20848;BMP180;10584;50.854;12.902;2024-03-23T04:25:48;96989.00;;;7.90
20848;BMP180;10584;50.854;12.902;2024-03-23T04:31:09;96984.00;;;7.90
20848;BMP180;10584;50.854;12.902;2024-03-23T04:36:29;96974.00;;;7.80
20848;BMP180;10584;50.854;12.902;2024-03-23T04:41:50;96979.00;;;7.90
20848;BMP180;10584;50.854;12.902;2024-03-23T04:47:11;96955.00;;;7.80
20848;BMP180;10584;50.854;12.902;2024-03-23T04:52:33;96930.00;;;7.80
20848;BMP180;10584;50.854;12.902;2024-03-23T04:57:53;96907.00;;;7.80
20848;BMP180;10584;50.854;12.902;2024-03-23T05:03:14;96902.00;;;7.80
20848;BMP180;10584;50.854;12.902;2024-03-23T05:08:35;96905.00;;;7.80
20848;BMP180;10584;50.854;12.902;2024-03-23T05:13:56;96899.00;;;7.70
20848;BMP180;10584;50.854;12.902;2024-03-23T05:19:17;96895.00;;;7.80
20848;BMP180;10584;50.854;12.902;2024-03-23T05:24:38;96870.00;;;7.70
20848;BMP180;10584;50.854;12.902;2024-03-23T05:29:58;96856.00;;;7.70
20848;BMP180;10584;50.854;12.902;2024-03-23T05:35:19;96864.00;;;7.70
20848;BMP180;10584;50.854;12.902;2024-03-23T05:40:40;96871.00;;;7.60
20848;BMP180;10584;50.854;12.902;2024-03-23T05:46:01;96840.00;;;7.70
20848;BMP180;10584;50.854;12.902;2024-03-23T05:51:22;96819.00;;;7.70
20848;BMP180;10584;50.854;12.902;2024-03-23T05:56:43;96818.00;;;7.70
20848;BMP180;10584;50.854;12.902;2024-03-23T06:02:04;96827.00;;;7.70
20848;BMP180;10584;50.854;12.902;2024-03-23T06:07:25;96785.00;;;7.60
20848;BMP180;10584;50.854;12.902;2024-03-23T06:12:49;96808.00;;;7.60
20848;BMP180;10584;50.854;12.902;2024-03-23T06:18:12;96783.00;;;7.70
20848;BMP180;10584;50.854;12.902;2024-03-23T06:23:32;96771.00;;;7.60
20848;BMP180;10584;50.854;12.902;2024-03-23T06:28:53;96780.00;;;7.70
20848;BMP180;10584;50.854;12.902;2024-03-23T06:34:14;96771.00;;;7.70
20848;BMP180;10584;50.854;12.902;2024-03-23T06:39:38;96732.00;;;7.60
20848;BMP180;10584;50.854;12.902;2024-03-23T06:44:58;96749.00;;;7.70
20848;BMP180;10584;50.854;12.902;2024-03-23T06:50:19;96746.00;;;7.60
20848;BMP180;10584;50.854;12.902;2024-03-23T06:55:40;96718.00;;;7.60
20848;BMP180;10584;50.854;12.902;2024-03-23T07:01:01;96702.00;;;7.50
20848;BMP180;10584;50.854;12.902;2024-03-23T07:06:22;96702.00;;;7.70
20848;BMP180;10584;50.854;12.902;2024-03-23T07:11:42;96689.00;;;7.80
20848;BMP180;10584;50.854;12.902;2024-03-23T07:17:03;96670.00;;;7.90
20848;BMP180;10584;50.854;12.902;2024-03-23T07:22:24;96659.00;;;8.00
20848;BMP180;10584;50.854;12.902;2024-03-23T07:27:44;96648.00;;;8.10
20848;BMP180;10584;50.854;12.902;2024-03-23T07:33:05;96649.00;;;8.20
20848;BMP180;10584;50.854;12.902;2024-03-23T07:38:29;96624.00;;;8.20
20848;BMP180;10584;50.854;12.902;2024-03-23T07:43:50;96626.00;;;8.30
20848;BMP180;10584;50.854;12.902;2024-03-23T07:49:11;96635.00;;;8.30
20848;BMP180;10584;50.854;12.902;2024-03-23T07:54:31;96618.00;;;8.50
20848;BMP180;10584;50.854;12.902;2024-03-23T07:59:52;96615.00;;;8.70
20848;BMP180;10584;50.854;12.902;2024-03-23T08:05:13;96595.00;;;9.00
20848;BMP180;10584;50.854;12.902;2024-03-23T08:10:34;96613.00;;;9.20
20848;BMP180;10584;50.854;12.902;2024-03-23T08:15:58;96616.00;;;9.60
20848;BMP180;10584;50.854;12.902;2024-03-23T08:21:19;96605.00;;;10.00
20848;BMP180;10584;50.854;12.902;2024-03-23T08:26:39;96606.00;;;10.20
20848;BMP180;10584;50.854;12.902;2024-03-23T08:32:00;96609.00;;;10.40
20848;BMP180;10584;50.854;12.902;2024-03-23T08:37:21;96617.00;;;10.40
20848;BMP180;10584;50.854;12.902;2024-03-23T08:42:42;96620.00;;;10.40
20848;BMP180;10584;50.854;12.902;2024-03-23T08:48:04;96609.00;;;10.40
20848;BMP180;10584;50.854;12.902;2024-03-23T08:53:24;96617.00;;;10.30
20848;BMP180;10584;50.854;12.902;2024-03-23T08:58:47;96692.00;;;9.40
20848;BMP180;10584;50.854;12.902;2024-03-23T09:04:08;96723.00;;;8.50
20848;BMP180;10584;50.854;12.902;2024-03-23T09:09:29;96769.00;;;7.70
20848;BMP180;10584;50.854;12.902;2024-03-23T09:14:50;96820.00;;;6.40
20848;BMP180;10584;50.854;12.902;2024-03-23T09:20:11;96845.00;;;5.30
20848;BMP180;10584;50.854;12.902;2024-03-23T09:25:39;96878.00;;;4.90
20848;BMP180;10584;50.854;12.902;2024-03-23T09:31:07;96906.00;;;4.70
20848;BMP180;10584;50.854;12.902;2024-03-23T09:36:28;96902.00;;;4.20
20848;BMP180;10584;50.854;12.902;2024-03-23T09:41:49;96949.00;;;4.10
20848;BMP180;10584;50.854;12.902;2024-03-23T09:47:10;96963.00;;;4.10
20848;BMP180;10584;50.854;12.902;2024-03-23T09:52:30;96972.00;;;4.30
20848;BMP180;10584;50.854;12.902;2024-03-23T09:57:51;97023.00;;;3.80
20848;BMP180;10584;50.854;12.902;2024-03-23T10:03:12;97046.00;;;3.70
20848;BMP180;10584;50.854;12.902;2024-03-23T10:08:33;97081.00;;;3.80
20848;BMP180;10584;50.854;12.902;2024-03-23T10:13:56;97081.00;;;3.70
20848;BMP180;10584;50.854;12.902;2024-03-23T10:19:31;97109.00;;;3.60
20848;BMP180;10584;50.854;12.902;2024-03-23T10:24:51;97116.00;;;3.40
20848;BMP180;10584;50.854;12.902;2024-03-23T10:30:16;97132.00;;;3.40
20848;BMP180;10584;50.854;12.902;2024-03-23T10:35:37;97152.00;;;3.40
20848;BMP180;10584;50.854;12.902;2024-03-23T10:41:00;97170.00;;;3.40
20848;BMP180;10584;50.854;12.902;2024-03-23T10:46:21;97177.00;;;3.40
20848;BMP180;10584;50.854;12.902;2024-03-23T10:51:41;97173.00;;;3.20
20848;BMP180;10584;50.854;12.902;2024-03-23T10:57:16;97179.00;;;3.40
20848;BMP180;10584;50.854;12.902;2024-03-23T11:02:37;97200.00;;;3.40
20848;BMP180;10584;50.854;12.902;2024-03-23T11:07:58;97201.00;;;3.20
20848;BMP180;10584;50.854;12.902;2024-03-23T11:13:22;97205.00;;;3.30
20848;BMP180;10584;50.854;12.902;2024-03-23T11:18:44;97196.00;;;3.50
20848;BMP180;10584;50.854;12.902;2024-03-23T11:24:17;97211.00;;;3.70
20848;BMP180;10584;50.854;12.902;2024-03-23T11:29:39;97217.00;;;3.60
20848;BMP180;10584;50.854;12.902;2024-03-23T11:35:02;97226.00;;;3.80
20848;BMP180;10584;50.854;12.902;2024-03-23T11:40:22;97219.00;;;3.80
20848;BMP180;10584;50.854;12.902;2024-03-23T11:45:48;97211.00;;;3.90
20848;BMP180;10584;50.854;12.902;2024-03-23T11:51:12;97207.00;;;4.00
20848;BMP180;10584;50.854;12.902;2024-03-23T11:56:33;97198.00;;;4.20
20848;BMP180;10584;50.854;12.902;2024-03-23T12:01:53;97188.00;;;4.40
20848;BMP180;10584;50.854;12.902;2024-03-23T12:07:16;97218.00;;;4.50
20848;BMP180;10584;50.854;12.902;2024-03-23T12:12:40;97212.00;;;4.50
20848;BMP180;10584;50.854;12.902;2024-03-23T12:18:08;97231.00;;;4.30
20848;BMP180;10584;50.854;12.902;2024-03-23T12:23:29;97228.00;;;4.10
20848;BMP180;10584;50.854;12.902;2024-03-23T12:28:49;97222.00;;;4.00
20848;BMP180;10584;50.854;12.902;2024-03-23T12:34:10;97235.00;;;4.00
20848;BMP180;10584;50.854;12.902;2024-03-23T12:39:31;97267.00;;;4.00
20848;BMP180;10584;50.854;12.902;2024-03-23T12:44:52;97255.00;;;4.00
20848;BMP180;10584;50.854;12.902;2024-03-23T12:50:12;97259.00;;;4.10
20848;BMP180;10584;50.854;12.902;2024-03-23T12:55:35;97248.00;;;4.30
20848;BMP180;10584;50.854;12.902;2024-03-23T13:00:58;97226.00;;;4.90
20848;BMP180;10584;50.854;12.902;2024-03-23T13:06:19;97211.00;;;5.40
20848;BMP180;10584;50.854;12.902;2024-03-23T13:11:39;97210.00;;;5.60
20848;BMP180;10584;50.854;12.902;2024-03-23T13:17:00;97210.00;;;6.10
20848;BMP180;10584;50.854;12.902;2024-03-23T13:22:22;97210.00;;;6.50
20848;BMP180;10584;50.854;12.902;2024-03-23T13:27:43;97194.00;;;6.60
20848;BMP180;10584;50.854;12.902;2024-03-23T13:33:03;97194.00;;;7.00
20848;BMP180;10584;50.854;12.902;2024-03-23T13:38:25;97176.00;;;7.10
20848;BMP180;10584;50.854;12.902;2024-03-23T13:43:46;97172.00;;;7.40
20848;BMP180;10584;50.854;12.902;2024-03-23T13:49:07;97170.00;;;7.50
20848;BMP180;10584;50.854;12.902;2024-03-23T13:54:28;97162.00;;;8.00
20848;BMP180;10584;50.854;12.902;2024-03-23T13:59:48;97153.00;;;8.30
20848;BMP180;10584;50.854;12.902;2024-03-23T14:05:09;97144.00;;;8.70
20848;BMP180;10584;50.854;12.902;2024-03-23T14:10:31;97143.00;;;8.90
20848;BMP180;10584;50.854;12.902;2024-03-23T14:15:55;97154.00;;;8.90
20848;BMP180;10584;50.854;12.902;2024-03-23T14:21:16;97149.00;;;8.80
20848;BMP180;10584;50.854;12.902;2024-03-23T14:26:36;97161.00;;;8.90
20848;BMP180;10584;50.854;12.902;2024-03-23T14:31:58;97163.00;;;8.20
20848;BMP180;10584;50.854;12.902;2024-03-23T14:37:18;97169.00;;;8.00
20848;BMP180;10584;50.854;12.902;2024-03-23T14:42:39;97159.00;;;8.00
20848;BMP180;10584;50.854;12.902;2024-03-23T14:48:01;97161.00;;;7.90
20848;BMP180;10584;50.854;12.902;2024-03-23T14:53:28;97181.00;;;8.10
20848;BMP180;10584;50.854;12.902;2024-03-23T14:58:53;97187.00;;;8.00
20848;BMP180;10584;50.854;12.902;2024-03-23T15:04:16;97169.00;;;7.90
20848;BMP180;10584;50.854;12.902;2024-03-23T15:09:37;97182.00;;;7.80
20848;BMP180;10584;50.854;12.902;2024-03-23T15:14:57;97167.00;;;7.90
20848;BMP180;10584;50.854;12.902;2024-03-23T15:20:18;97171.00;;;7.80
20848;BMP180;10584;50.854;12.902;2024-03-23T15:25:39;97173.00;;;7.70
20848;BMP180;10584;50.854;12.902;2024-03-23T15:31:00;97175.00;;;7.60
20848;BMP180;10584;50.854;12.902;2024-03-23T15:36:24;97164.00;;;7.80
20848;BMP180;10584;50.854;12.902;2024-03-23T15:41:45;97163.00;;;8.00
20848;BMP180;10584;50.854;12.902;2024-03-23T15:47:06;97159.00;;;7.90
20848;BMP180;10584;50.854;12.902;2024-03-23T15:52:26;97148.00;;;7.60
20848;BMP180;10584;50.854;12.902;2024-03-23T15:57:47;97151.00;;;7.50
20848;BMP180;10584;50.854;12.902;2024-03-23T16:03:08;97203.00;;;6.80
20848;BMP180;10584;50.854;12.902;2024-03-23T16:08:29;97216.00;;;5.80
20848;BMP180;10584;50.854;12.902;2024-03-23T16:13:50;97220.00;;;5.40
20848;BMP180;10584;50.854;12.902;2024-03-23T16:19:11;97225.00;;;5.10
20848;BMP180;10584;50.854;12.902;2024-03-23T16:24:32;97232.00;;;4.90
20848;BMP180;10584;50.854;12.902;2024-03-23T16:29:53;97230.00;;;4.70
20848;BMP180;10584;50.854;12.902;2024-03-23T16:35:14;97227.00;;;4.70
20848;BMP180;10584;50.854;12.902;2024-03-23T16:40:34;97217.00;;;5.00
20848;BMP180;10584;50.854;12.902;2024-03-23T16:51:20;97215.00;;;5.00
20848;BMP180;10584;50.854;12.902;2024-03-23T16:56:41;97218.00;;;5.00
20848;BMP180;10584;50.854;12.902;2024-03-23T17:02:02;97215.00;;;5.10
20848;BMP180;10584;50.854;12.902;2024-03-23T17:07:22;97220.00;;;4.90
20848;BMP180;10584;50.854;12.902;2024-03-23T17:12:43;97222.00;;;4.80
20848;BMP180;10584;50.854;12.902;2024-03-23T17:18:04;97213.00;;;4.80
20848;BMP180;10584;50.854;12.902;2024-03-23T17:23:29;97202.00;;;4.60
20848;BMP180;10584;50.854;12.902;2024-03-23T17:28:51;97201.00;;;4.60
20848;BMP180;10584;50.854;12.902;2024-03-23T17:34:11;97200.00;;;4.70
20848;BMP180;10584;50.854;12.902;2024-03-23T17:39:33;97190.00;;;4.50
20848;BMP180;10584;50.854;12.902;2024-03-23T17:44:54;97189.00;;;4.60
20848;BMP180;10584;50.854;12.902;2024-03-23T17:50:15;97183.00;;;4.70
20848;BMP180;10584;50.854;12.902;2024-03-23T17:55:35;97191.00;;;4.60
20848;BMP180;10584;50.854;12.902;2024-03-23T18:00:56;97187.00;;;4.60
20848;BMP180;10584;50.854;12.902;2024-03-23T18:06:17;97192.00;;;4.70
20848;BMP180;10584;50.854;12.902;2024-03-23T18:11:38;97200.00;;;4.60
20848;BMP180;10584;50.854;12.902;2024-03-23T18:16:58;97205.00;;;4.50
20848;BMP180;10584;50.854;12.902;2024-03-23T18:22:19;97212.00;;;4.50
20848;BMP180;10584;50.854;12.902;2024-03-23T18:27:39;97216.00;;;4.50
20848;BMP180;10584;50.854;12.902;2024-03-23T18:33:00;97221.00;;;4.50
20848;BMP180;10584;50.854;12.902;2024-03-23T18:38:21;97231.00;;;4.50
20848;BMP180;10584;50.854;12.902;2024-03-23T18:43:45;97222.00;;;4.40
20848;BMP180;10584;50.854;12.902;2024-03-23T18:49:06;97235.00;;;4.40
20848;BMP180;10584;50.854;12.902;2024-03-23T18:54:27;97233.00;;;4.40
20848;BMP180;10584;50.854;12.902;2024-03-23T18:59:49;97235.00;;;4.40
20848;BMP180;10584;50.854;12.902;2024-03-23T19:05:11;97229.00;;;4.40
20848;BMP180;10584;50.854;12.902;2024-03-23T19:10:32;97237.00;;;4.50
20848;BMP180;10584;50.854;12.902;2024-03-23T19:15:54;97234.00;;;4.60
20848;BMP180;10584;50.854;12.902;2024-03-23T19:21:15;97232.00;;;4.40
20848;BMP180;10584;50.854;12.902;2024-03-23T19:26:36;97239.00;;;4.50
20848;BMP180;10584;50.854;12.902;2024-03-23T19:32:00;97235.00;;;4.50
20848;BMP180;10584;50.854;12.902;2024-03-23T19:37:20;97231.00;;;4.40
20848;BMP180;10584;50.854;12.902;2024-03-23T19:42:41;97224.00;;;4.40
20848;BMP180;10584;50.854;12.902;2024-03-23T19:48:02;97223.00;;;4.20
20848;BMP180;10584;50.854;12.902;2024-03-23T19:53:23;97217.00;;;4.10
20848;BMP180;10584;50.854;12.902;2024-03-23T19:58:47;97210.00;;;4.10
20848;BMP180;10584;50.854;12.902;2024-03-23T20:04:08;97223.00;;;4.00
20848;BMP180;10584;50.854;12.902;2024-03-23T20:09:28;97217.00;;;3.90
20848;BMP180;10584;50.854;12.902;2024-03-23T20:14:51;97211.00;;;3.80
20848;BMP180;10584;50.854;12.902;2024-03-23T20:20:12;97210.00;;;3.70
20848;BMP180;10584;50.854;12.902;2024-03-23T20:25:33;97212.00;;;3.60
20848;BMP180;10584;50.854;12.902;2024-03-23T20:30:57;97214.00;;;3.50
20848;BMP180;10584;50.854;12.902;2024-03-23T20:36:18;97217.00;;;3.50
20848;BMP180;10584;50.854;12.902;2024-03-23T20:41:39;97216.00;;;3.40
20848;BMP180;10584;50.854;12.902;2024-03-23T20:47:00;97221.00;;;3.30
20848;BMP180;10584;50.854;12.902;2024-03-23T20:52:21;97219.00;;;3.30
20848;BMP180;10584;50.854;12.902;2024-03-23T20:57:41;97211.00;;;3.20
20848;BMP180;10584;50.854;12.902;2024-03-23T21:03:02;97201.00;;;3.10
20848;BMP180;10584;50.854;12.902;2024-03-23T21:08:23;97195.00;;;3.00
20848;BMP180;10584;50.854;12.902;2024-03-23T21:13:44;97212.00;;;3.00
20848;BMP180;10584;50.854;12.902;2024-03-23T21:19:05;97204.00;;;3.10
20848;BMP180;10584;50.854;12.902;2024-03-23T21:24:25;97205.00;;;2.90
20848;BMP180;10584;50.854;12.902;2024-03-23T21:29:46;97184.00;;;2.70
20848;BMP180;10584;50.854;12.902;2024-03-23T21:35:07;97194.00;;;2.90
20848;BMP180;10584;50.854;12.902;2024-03-23T21:40:30;97185.00;;;2.80
20848;BMP180;10584;50.854;12.902;2024-03-23T21:45:58;97174.00;;;2.90
20848;BMP180;10584;50.854;12.902;2024-03-23T21:51:20;97182.00;;;2.90
20848;BMP180;10584;50.854;12.902;2024-03-23T21:56:40;97165.00;;;2.80
20848;BMP180;10584;50.854;12.902;2024-03-23T22:02:01;97169.00;;;2.90
20848;BMP180;10584;50.854;12.902;2024-03-23T22:07:22;97162.00;;;3.00
20848;BMP180;10584;50.854;12.902;2024-03-23T22:12:46;97149.00;;;2.90
20848;BMP180;10584;50.854;12.902;2024-03-23T22:18:07;97158.00;;;2.80
20848;BMP180;10584;50.854;12.902;2024-03-23T22:23:29;97157.00;;;2.80
20848;BMP180;10584;50.854;12.902;2024-03-23T22:28:50;97141.00;;;2.80
20848;BMP180;10584;50.854;12.902;2024-03-23T22:34:11;97146.00;;;2.80
20848;BMP180;10584;50.854;12.902;2024-03-23T22:39:33;97140.00;;;2.80
20848;BMP180;10584;50.854;12.902;2024-03-23T22:44:54;97130.00;;;2.80
20848;BMP180;10584;50.854;12.902;2024-03-23T22:50:15;97133.00;;;2.80
20848;BMP180;10584;50.854;12.902;2024-03-23T22:55:37;97131.00;;;2.80
20848;BMP180;10584;50.854;12.902;2024-03-23T23:00:58;97125.00;;;2.80
20848;BMP180;10584;50.854;12.902;2024-03-23T23:06:19;97124.00;;;2.80
20848;BMP180;10584;50.854;12.902;2024-03-23T23:11:40;97129.00;;;2.80
20848;BMP180;10584;50.854;12.902;2024-03-23T23:17:00;97118.00;;;2.80
20848;BMP180;10584;50.854;12.902;2024-03-23T23:22:21;97109.00;;;2.80
20848;BMP180;10584;50.854;12.902;2024-03-23T23:27:42;97107.00;;;2.90
20848;BMP180;10584;50.854;12.902;2024-03-23T23:33:03;97110.00;;;2.90
20848;BMP180;10584;50.854;12.902;2024-03-23T23:38:23;97099.00;;;2.80
20848;BMP180;10584;50.854;12.902;2024-03-23T23:43:54;97091.00;;;2.80
20848;BMP180;10584;50.854;12.902;2024-03-23T23:49:15;97094.00;;;2.80
20848;BMP180;10584;50.854;12.902;2024-03-23T23:54:36;97083.00;;;2.90
20848;BMP180;10584;50.854;12.902;2024-03-23T23:59:57;97085.00;;;2.80
